Time;durP1;ratioP1;P1;durP2;ratioP2;P2;SDS_P1;SDS_P2;PMS_P1;PMS_P2;Temp;Humidity;BMP_temperature;BMP_pressure;BME280_temperature;BME280_humidity;BME280_pressure;Samples;Min_cycle;Max_cycle;Signal;HPM_P1;HPM_P2
2023/08/14 00:00:42;;;;;;;10.07;6.28;;;;;;;17.70;100.00;97876.38;5033389;28;20428;-73
2023/08/14 00:03:08;;;;;;;11.15;6.38;;;;;;;17.69;100.00;97871.94;5029263;28;20033;-73
2023/08/14 00:05:33;;;;;;;7.85;5.32;;;;;;;17.64;100.00;97866.09;5031591;28;20025;-73
2023/08/14 00:07:59;;;;;;;8.18;5.25;;;;;;;17.60;100.00;97870.03;5046357;28;20033;-73
2023/08/14 00:10:26;;;;;;;9.18;5.30;;;;;;;17.57;100.00;97866.72;5042943;28;20462;-73
2023/08/14 00:12:54;;;;;;;9.90;5.75;;;;;;;17.55;100.00;97885.81;5026607;28;20033;-72
2023/08/14 00:15:19;;;;;;;12.23;5.45;;;;;;;17.58;100.00;97888.25;5033205;28;20036;-72
2023/08/14 00:17:45;;;;;;;16.50;5.95;;;;;;;17.57;100.00;97873.00;5025753;28;20513;-71
2023/08/14 00:20:11;;;;;;;9.25;5.82;;;;;;;17.52;100.00;97872.50;5031008;28;20029;-72
2023/08/14 00:22:36;;;;;;;9.55;5.88;;;;;;;17.59;100.00;97873.75;5018221;28;20025;-72
2023/08/14 00:25:02;;;;;;;11.57;5.93;;;;;;;17.62;100.00;97876.19;5009056;28;20098;-73
2023/08/14 00:27:28;;;;;;;9.20;5.60;;;;;;;17.57;100.00;97875.69;5031172;28;20029;-72
2023/08/14 00:29:53;;;;;;;13.75;6.28;;;;;;;17.55;100.00;97872.28;5032445;28;20553;-73
2023/08/14 00:32:19;;;;;;;11.13;6.13;;;;;;;17.52;100.00;97867.09;5024718;28;20070;-72
2023/08/14 00:34:44;;;;;;;8.57;5.97;;;;;;;17.55;100.00;97877.69;5027491;28;20090;-72
2023/08/14 00:37:10;;;;;;;9.70;5.72;;;;;;;17.57;100.00;97880.25;5035807;28;20026;-72
2023/08/14 00:39:35;;;;;;;11.10;6.15;;;;;;;17.60;100.00;97867.31;5011161;28;20115;-72
2023/08/14 00:42:01;;;;;;;10.93;5.47;;;;;;;17.71;100.00;97879.94;5027636;28;20116;-72
2023/08/14 00:44:28;;;;;;;9.25;5.70;;;;;;;17.69;100.00;97863.81;5038546;28;20561;-73
2023/08/14 00:46:54;;;;;;;9.75;6.15;;;;;;;17.59;100.00;97862.91;5013825;28;20025;-73
2023/08/14 00:49:19;;;;;;;14.27;6.28;;;;;;;17.60;100.00;97874.56;5010986;28;20466;-72
2023/08/14 00:51:45;;;;;;;9.52;5.75;;;;;;;17.62;100.00;97873.47;5042962;28;20031;-72
2023/08/14 00:54:13;;;;;;;8.05;5.95;;;;;;;17.53;100.00;97865.25;5021201;28;20036;-73
2023/08/14 00:56:38;;;;;;;9.93;6.40;;;;;;;17.53;100.00;97876.94;5032671;28;20372;-73
2023/08/14 00:59:04;;;;;;;8.88;5.93;;;;;;;17.46;100.00;97873.03;5032305;28;20033;-72
2023/08/14 01:01:29;;;;;;;7.82;5.70;;;;;;;17.39;100.00;97871.81;5029424;28;20431;-72
2023/08/14 01:03:55;;;;;;;8.98;6.03;;;;;;;17.30;100.00;97873.44;5037716;28;20061;-72
2023/08/14 01:06:21;;;;;;;11.32;5.63;;;;;;;17.20;100.00;97871.63;5014089;28;20036;-72
2023/08/14 01:08:46;;;;;;;8.80;5.63;;;;;;;17.14;100.00;97877.56;5032024;28;20036;-73
2023/08/14 01:11:20;;;;;;;7.40;5.53;;;;;;;17.13;100.00;97870.44;5037335;28;20039;-72
2023/08/14 01:14:12;;;;;;;7.68;5.35;;;;;;;17.05;100.00;97873.78;5032458;28;20057;-72
2023/08/14 01:16:38;;;;;;;;;;;;;;;17.00;100.00;97869.75;5050833;28;20036;-73
2023/08/14 01:19:09;;;;;;;10.23;5.35;;;;;;;16.91;100.00;97865.97;5047672;28;19908;-73
2023/08/14 01:22:03;;;;;;;7.07;5.45;;;;;;;16.94;100.00;97879.22;5048798;28;20093;-72
2023/08/14 01:24:49;;;;;;;8.00;5.55;;;;;;;16.91;100.00;97876.78;5041737;28;20022;-73
2023/08/14 01:27:15;;;;;;;7.70;5.53;;;;;;;16.80;100.00;97877.63;5048711;28;20033;-73
2023/08/14 01:29:42;;;;;;;7.13;5.63;;;;;;;16.77;100.00;97880.59;5028961;28;20084;-73
2023/08/14 01:32:08;;;;;;;7.53;5.90;;;;;;;16.76;100.00;97878.84;5044150;28;20123;-73
2023/08/14 01:34:33;;;;;;;8.98;5.72;;;;;;;16.58;100.00;97879.53;5040318;28;20104;-72
2023/08/14 01:37:25;;;;;;;10.68;6.32;;;;;;;16.56;100.00;97887.72;5033791;28;20074;-73
2023/08/14 01:40:15;;;;;;;8.35;6.47;;;;;;;16.57;100.00;97894.00;5034889;28;20140;-73
2023/08/14 01:42:41;;;;;;;6.50;5.43;;;;;;;16.56;100.00;97889.56;5048194;28;20053;-73
2023/08/14 01:45:12;;;;;;;10.55;5.88;;;;;;;16.51;100.00;97880.94;5046140;28;20040;-72
2023/08/14 01:47:39;;;;;;;7.97;6.18;;;;;;;16.45;100.00;97874.22;5020381;28;20081;-73
2023/08/14 01:50:06;;;;;;;8.68;6.25;;;;;;;16.41;100.00;97886.22;5021929;28;20029;-73
2023/08/14 01:52:31;;;;;;;7.40;5.40;;;;;;;16.43;100.00;97881.56;5030637;28;20041;-73
2023/08/14 01:55:00;;;;;;;11.48;5.82;;;;;;;16.31;100.00;97877.13;5028289;28;20029;-73
2023/08/14 01:57:27;;;;;;;13.15;6.38;;;;;;;16.27;100.00;97876.53;5037415;28;20024;-73
2023/08/14 01:59:52;;;;;;;9.02;5.90;;;;;;;16.26;100.00;97879.34;5044565;28;20048;-72
2023/08/14 02:02:18;;;;;;;9.00;5.93;;;;;;;16.27;100.00;97878.38;5035636;28;20033;-72
2023/08/14 02:04:43;;;;;;;13.02;6.00;;;;;;;16.21;100.00;97877.00;5035890;28;20752;-72
2023/08/14 02:07:11;;;;;;;12.98;6.35;;;;;;;16.19;100.00;97873.56;5048055;28;20093;-73
2023/08/14 02:09:37;;;;;;;9.15;6.43;;;;;;;16.20;100.00;97880.72;5017883;28;20377;-72
2023/08/14 02:12:03;;;;;;;14.80;6.20;;;;;;;16.24;100.00;97875.94;5036725;28;20025;-72
2023/08/14 02:14:29;;;;;;;16.05;6.90;;;;;;;16.30;100.00;97883.53;5036912;28;20445;-73
2023/08/14 02:16:55;;;;;;;11.52;6.68;;;;;;;16.22;100.00;97877.88;5031569;28;20127;-72
2023/08/14 02:19:21;;;;;;;14.18;6.03;;;;;;;16.21;100.00;97879.72;5018960;28;20408;-73
2023/08/14 02:21:46;;;;;;;17.88;6.50;;;;;;;16.22;100.00;97877.88;5037176;28;20060;-73
2023/08/14 02:24:12;;;;;;;15.57;6.65;;;;;;;16.21;100.00;97877.00;5021459;28;20575;-73
2023/08/14 02:26:37;;;;;;;15.02;6.68;;;;;;;16.21;100.00;97877.00;5043769;28;20040;-73
2023/08/14 02:29:03;;;;;;;10.48;6.43;;;;;;;16.13;100.00;97873.19;5034747;28;20045;-73
2023/08/14 02:31:29;;;;;;;13.18;6.55;;;;;;;16.04;100.00;97871.22;5028148;28;20477;-72
2023/08/14 02:34:00;;;;;;;18.20;7.15;;;;;;;16.04;100.00;97884.72;5035363;28;20025;-72
2023/08/14 02:36:26;;;;;;;12.70;6.07;;;;;;;15.96;100.00;97876.38;5011508;28;20448;-72
2023/08/14 02:38:52;;;;;;;10.88;6.35;;;;;;;15.96;100.00;97882.66;5030430;28;20025;-72
2023/08/14 02:41:18;;;;;;;9.82;6.70;;;;;;;15.91;100.00;97881.25;5032999;28;20060;-72
2023/08/14 02:43:44;;;;;;;9.65;5.97;;;;;;;15.83;100.00;97878.31;5034766;28;20052;-72
2023/08/14 02:46:09;;;;;;;9.57;6.38;;;;;;;15.81;100.00;97883.81;5047474;28;20103;-72
2023/08/14 02:48:35;;;;;;;9.57;6.05;;;;;;;15.80;100.00;97889.34;5047541;28;20025;-72
2023/08/14 02:51:00;;;;;;;9.23;6.13;;;;;;;15.76;100.00;97890.53;5027739;28;20349;-72
2023/08/14 02:53:26;;;;;;;11.27;6.82;;;;;;;15.78;100.00;97894.00;5027316;28;20090;-73
2023/08/14 02:55:52;;;;;;;22.48;8.55;;;;;;;15.78;100.00;97900.22;5027583;28;20026;-73
2023/08/14 02:58:18;;;;;;;19.67;9.18;;;;;;;15.76;100.00;97896.81;5027412;28;20149;-72
2023/08/14 03:00:48;;;;;;;12.48;6.50;;;;;;;15.81;100.00;97899.16;5032763;28;20065;-72
2023/08/14 03:03:14;;;;;;;12.75;6.72;;;;;;;15.67;100.00;97893.00;5025378;28;20109;-72
2023/08/14 03:05:39;;;;;;;12.77;6.32;;;;;;;15.65;100.00;97904.88;5023450;28;20074;-72
2023/08/14 03:08:05;;;;;;;9.05;6.50;;;;;;;15.58;100.00;97896.38;5018373;28;20452;-72
2023/08/14 03:10:31;;;;;;;10.13;6.63;;;;;;;15.53;100.00;97900.41;5027513;28;20104;-72
2023/08/14 03:12:57;;;;;;;11.55;6.95;;;;;;;15.46;100.00;97902.69;5027877;28;20033;-72
2023/08/14 03:15:22;;;;;;;12.43;6.75;;;;;;;15.36;100.00;97892.69;5027175;28;20097;-73
2023/08/14 03:17:48;;;;;;;10.93;6.45;;;;;;;15.29;100.00;97892.28;5043694;28;20036;-72
2023/08/14 03:20:14;;;;;;;9.52;7.03;;;;;;;15.30;100.00;97899.41;5027406;28;20033;-72
2023/08/14 03:22:39;;;;;;;10.38;6.82;;;;;;;15.19;100.00;97894.84;5030633;28;20104;-71
2023/08/14 03:25:05;;;;;;;11.13;6.80;;;;;;;15.16;100.00;97900.44;5031635;28;20043;-71
2023/08/14 03:27:31;;;;;;;13.75;6.90;;;;;;;15.20;100.00;97909.16;5038567;28;20063;-71
2023/08/14 03:29:56;;;;;;;12.02;6.72;;;;;;;15.23;100.00;97903.53;5022027;28;20564;-72
2023/08/14 03:32:22;;;;;;;12.93;7.30;;;;;;;15.19;100.00;97902.94;5041367;28;20116;-72
2023/08/14 03:34:47;;;;;;;11.40;6.72;;;;;;;15.21;100.00;97902.81;5019193;28;20075;-71
2023/08/14 03:37:13;;;;;;;22.75;8.00;;;;;;;15.20;100.00;97904.63;5034515;28;20035;-71
2023/08/14 03:39:38;;;;;;;22.10;7.50;;;;;;;15.23;100.00;97908.94;5035049;28;20461;-73
2023/08/14 03:42:04;;;;;;;17.67;8.10;;;;;;;15.29;100.00;97913.88;5039447;28;20032;-72
2023/08/14 03:44:29;;;;;;;16.88;8.05;;;;;;;15.23;100.00;97903.53;5030996;28;20053;-72
2023/08/14 03:46:55;;;;;;;11.55;7.03;;;;;;;15.25;100.00;97912.41;5039228;28;20107;-72
2023/08/14 03:49:23;;;;;;;11.07;7.30;;;;;;;15.28;100.00;97906.78;5010467;28;20503;-73
2023/08/14 03:51:49;;;;;;;13.35;6.75;;;;;;;15.37;100.00;97905.22;5042904;28;20029;-73
2023/08/14 03:54:14;;;;;;;27.30;7.93;;;;;;;15.33;100.00;97907.28;5039853;28;20025;-72
2023/08/14 03:56:40;;;;;;;44.17;11.45;;;;;;;15.47;100.00;97917.91;5031004;28;20037;-73
2023/08/14 03:59:05;;;;;;;33.33;12.35;;;;;;;15.50;100.00;97914.13;5035905;28;20054;-73
2023/08/14 04:01:31;;;;;;;43.47;12.10;;;;;;;15.58;100.00;97919.78;5024190;28;20067;-73
2023/08/14 04:03:57;;;;;;;12.65;7.22;;;;;;;15.65;100.00;97930.00;5044145;28;20080;-73
2023/08/14 04:06:22;;;;;;;17.23;7.57;;;;;;;15.55;100.00;97915.50;5038234;28;20107;-73
2023/08/14 04:08:48;;;;;;;13.70;7.68;;;;;;;15.58;100.00;97923.34;5041196;28;20037;-72
2023/08/14 04:11:13;;;;;;;13.65;6.78;;;;;;;15.72;100.00;97920.44;5018313;28;20049;-73
2023/08/14 04:13:39;;;;;;;17.00;6.88;;;;;;;16.41;100.00;97920.47;5029592;28;20037;-73
2023/08/14 04:16:05;;;;;;;19.27;6.55;;;;;;;16.95;100.00;97909.81;5042114;28;20040;-73
2023/08/14 04:18:31;;;;;;;17.23;7.07;;;;;;;17.65;100.00;97902.97;5043681;28;20029;-72
2023/08/14 04:20:57;;;;;;;20.80;7.88;;;;;;;18.18;100.00;97909.19;5040444;28;20033;-73
2023/08/14 04:23:24;;;;;;;26.10;6.85;;;;;;;18.13;100.00;97910.56;5014783;28;20056;-73
2023/08/14 04:25:50;;;;;;;27.80;7.30;;;;;;;17.86;100.00;97914.69;5011832;28;20033;-73
2023/08/14 04:28:16;;;;;;;33.28;7.80;;;;;;;17.82;100.00;97918.63;5038201;28;20029;-73
2023/08/14 04:30:42;;;;;;;40.88;8.38;;;;;;;17.62;100.00;97914.06;5013019;28;20128;-73
2023/08/14 04:33:08;;;;;;;30.23;8.07;;;;;;;17.37;100.00;97922.47;5021525;28;20129;-73
2023/08/14 04:35:33;;;;;;;27.25;8.30;;;;;;;17.19;100.00;97924.00;5045766;28;20526;-73
2023/08/14 04:37:59;;;;;;;49.65;12.40;;;;;;;17.16;100.00;97932.38;5032578;28;20480;-73
2023/08/14 04:40:24;;;;;;;57.40;11.68;;;;;;;17.02;100.00;97932.63;5038218;28;20404;-72
2023/08/14 04:42:50;;;;;;;26.50;8.98;;;;;;;17.10;100.00;97938.28;5057087;28;20489;-72
2023/08/14 04:45:15;;;;;;;31.55;9.38;;;;;;;16.99;100.00;97936.44;5043083;28;20527;-71
2023/08/14 04:47:41;;;;;;;32.03;9.50;;;;;;;17.05;100.00;97945.88;5051120;28;20029;-72
2023/08/14 04:50:09;;;;;;;27.80;8.52;;;;;;;17.11;100.00;97946.25;5042566;28;20192;-72
2023/08/14 04:52:35;;;;;;;48.40;9.98;;;;;;;17.16;100.00;97956.72;5036768;28;20040;-73
2023/08/14 04:55:00;;;;;;;21.75;8.85;;;;;;;17.23;100.00;97941.66;5030323;28;20033;-73
2023/08/14 04:57:26;;;;;;;37.28;8.73;;;;;;;17.18;100.00;97954.72;5041181;28;20322;-72
2023/08/14 04:59:51;;;;;;;39.75;8.30;;;;;;;17.28;100.00;97953.00;5024415;28;20497;-73
2023/08/14 05:02:17;;;;;;;20.23;7.88;;;;;;;17.31;100.00;97956.31;5044534;28;20029;-74
2023/08/14 05:04:42;;;;;;;34.75;13.73;;;;;;;17.38;100.00;97950.38;5032170;28;20145;-75
2023/08/14 05:07:08;;;;;;;32.30;9.70;;;;;;;17.52;100.00;97963.63;5034016;28;20052;-73
2023/08/14 05:09:33;;;;;;;39.17;10.70;;;;;;;17.59;100.00;97949.50;5042397;28;20603;-73
2023/08/14 05:11:59;;;;;;;19.08;8.18;;;;;;;17.67;100.00;97944.28;5031937;28;20116;-74
2023/08/14 05:14:25;;;;;;;16.48;8.20;;;;;;;17.86;100.00;97955.28;5025465;28;20088;-73
2023/08/14 05:16:50;;;;;;;39.70;19.42;;;;;;;17.99;100.00;97956.94;5031366;28;20206;-72
2023/08/14 05:19:16;;;;;;;27.17;10.07;;;;;;;18.19;100.00;97951.53;5046825;28;20043;-71
2023/08/14 05:21:41;;;;;;;24.55;9.30;;;;;;;18.31;100.00;97944.19;5033889;28;20074;-71
2023/08/14 05:24:07;;;;;;;15.85;7.53;;;;;;;18.46;100.00;97950.13;5033735;28;20089;-77
2023/08/14 05:26:33;;;;;;;19.52;8.10;;;;;;;18.53;100.00;97952.19;5027913;28;20481;-76
2023/08/14 05:28:58;;;;;;;27.08;8.82;;;;;;;18.71;100.00;97961.41;5034554;28;20033;-74
2023/08/14 05:31:24;;;;;;;21.42;8.80;;;;;;;18.75;100.00;97945.75;5037700;28;20021;-75
2023/08/14 05:33:49;;;;;;;60.45;34.22;;;;;;;18.93;100.00;97955.81;5033773;28;20057;-75
2023/08/14 05:36:15;;;;;;;16.55;9.40;;;;;;;19.89;100.00;97960.63;5025786;28;20057;-77
2023/08/14 05:38:40;;;;;;;54.25;9.10;;;;;;;21.48;100.00;97940.56;5031382;28;20051;-75
2023/08/14 05:41:06;;;;;;;14.52;6.15;;;;;;;22.87;100.00;97943.50;5029471;28;20120;-75
2023/08/14 05:43:31;;;;;;;9.02;5.50;;;;;;;24.08;100.00;97922.94;5045652;28;20148;-76
2023/08/14 05:45:57;;;;;;;18.25;6.03;;;;;;;24.96;100.00;97923.88;5029361;28;20036;-78
2023/08/14 05:48:22;;;;;;;16.65;5.95;;;;;;;25.48;100.00;97915.09;5028851;28;20043;-78
2023/08/14 05:50:52;;;;;;;12.55;6.15;;;;;;;26.24;95.77;97924.25;5029115;28;20560;-75
2023/08/14 05:53:18;;;;;;;45.13;7.38;;;;;;;27.10;88.72;97923.75;5045463;28;20044;-76
2023/08/14 05:55:43;;;;;;;19.35;5.63;;;;;;;26.42;87.93;97923.09;5045914;28;20476;-77
2023/08/14 05:58:09;;;;;;;12.85;6.35;;;;;;;27.04;97.97;97946.50;5030553;28;20112;-78
2023/08/14 06:00:36;;;;;;;9.85;5.43;;;;;;;28.05;78.29;97926.50;5021497;28;20025;-78
2023/08/14 06:03:02;;;;;;;9.13;5.68;;;;;;;28.42;74.62;97913.34;5038775;28;20037;-76
2023/08/14 06:05:31;;;;;;;14.85;5.18;;;;;;;28.64;69.37;97914.13;5025613;28;20529;-77
2023/08/14 06:07:57;;;;;;;21.15;8.07;;;;;;;28.94;65.98;97912.06;5022376;28;20040;-77
2023/08/14 06:10:23;;;;;;;13.77;5.38;;;;;;;29.05;66.63;97923.38;5028888;28;20144;-78
2023/08/14 06:12:49;;;;;;;50.10;9.02;;;;;;;29.67;66.58;97918.84;5026740;28;20164;-79
2023/08/14 06:15:16;;;;;;;32.28;7.60;;;;;;;30.27;60.05;97913.28;5029089;28;20525;-81
2023/08/14 06:17:42;;;;;;;52.38;36.22;;;;;;;30.42;60.64;97914.00;5030743;28;20026;-77
2023/08/14 06:20:10;;;;;;;9.55;5.60;;;;;;;30.50;57.41;97918.47;5011828;28;20405;-78
2023/08/14 06:22:44;;;;;;;43.85;25.42;;;;;;;31.06;56.63;97910.59;5010547;28;20139;-77
2023/08/14 06:25:11;;;;;;;27.25;7.03;;;;;;;30.82;55.85;97908.47;5030242;28;20503;-77
2023/08/14 06:27:36;;;;;;;49.72;7.82;;;;;;;31.45;54.63;97913.25;5015378;28;20034;-76
2023/08/14 06:30:03;;;;;;;16.52;6.35;;;;;;;31.82;52.79;97911.63;5020849;28;20440;-76
2023/08/14 06:32:29;;;;;;;11.98;5.78;;;;;;;31.93;51.20;97907.34;5026419;28;20467;-78
2023/08/14 06:34:55;;;;;;;29.70;6.25;;;;;;;30.92;53.61;97912.47;5017618;28;20111;-77
2023/08/14 06:37:20;;;;;;;13.32;5.50;;;;;;;29.66;60.65;97915.22;5013059;28;20033;-76
2023/08/14 06:39:45;;;;;;;8.85;5.45;;;;;;;30.30;56.30;97910.09;5027079;28;20034;-76
2023/08/14 06:42:11;;;;;;;8.48;5.10;;;;;;;31.15;54.14;97912.06;5034123;28;20025;-76
2023/08/14 06:44:39;;;;;;;13.05;5.00;;;;;;;31.68;51.72;97910.00;5022834;28;20541;-77
2023/08/14 06:47:05;;;;;;;18.38;5.50;;;;;;;31.65;51.38;97910.44;5024168;28;20033;-77
2023/08/14 06:49:30;;;;;;;8.88;4.78;;;;;;;31.90;49.44;97914.13;5020804;28;20480;-77
2023/08/14 06:51:56;;;;;;;8.82;4.50;;;;;;;32.48;48.71;97905.72;5029731;28;20421;-76
2023/08/14 06:54:21;;;;;;;11.32;5.47;;;;;;;32.97;47.31;97910.44;5034147;28;20025;-76
2023/08/14 06:56:47;;;;;;;46.85;7.47;;;;;;;33.31;45.67;97903.50;5024679;28;20035;-77
2023/08/14 06:59:12;;;;;;;25.08;6.80;;;;;;;33.76;44.88;97911.31;5018167;28;20052;-76
2023/08/14 07:01:38;;;;;;;12.52;4.97;;;;;;;34.52;43.03;97904.25;5035370;28;20552;-77
2023/08/14 07:04:04;;;;;;;15.90;5.78;;;;;;;35.19;41.53;97906.53;5032521;28;20025;-75
2023/08/14 07:06:29;;;;;;;9.70;5.15;;;;;;;34.92;40.30;97898.91;5042511;28;20069;-75
2023/08/14 07:08:55;;;;;;;9.60;4.45;;;;;;;35.34;39.15;97903.28;5037107;28;20125;-76
2023/08/14 07:11:20;;;;;;;16.17;4.97;;;;;;;34.93;39.48;97901.44;5040272;28;20032;-76
2023/08/14 07:13:46;;;;;;;10.57;4.82;;;;;;;34.25;40.26;97901.88;5021962;28;20472;-75
2023/08/14 07:16:11;;;;;;;22.13;4.72;;;;;;;34.33;40.27;97909.88;5033411;28;20124;-75
2023/08/14 07:18:37;;;;;;;6.72;3.85;;;;;;;33.23;41.36;97907.41;5024692;28;20039;-75
2023/08/14 07:21:03;;;;;;;7.45;4.53;;;;;;;31.98;43.97;97910.28;5024842;28;20037;-75
2023/08/14 07:23:28;;;;;;;9.32;4.57;;;;;;;32.34;44.93;97909.63;5026829;28;20034;-75
2023/08/14 07:25:57;;;;;;;13.05;4.53;;;;;;;33.79;42.03;97904.44;5030601;28;20519;-76
2023/08/14 07:28:23;;;;;;;8.65;4.55;;;;;;;34.71;40.67;97908.66;5033993;28;20131;-76
2023/08/14 07:30:49;;;;;;;10.77;5.15;;;;;;;33.68;42.00;97906.09;5033418;28;20156;-75
2023/08/14 07:33:15;;;;;;;20.83;5.43;;;;;;;34.92;40.61;97908.09;5027798;28;20032;-75
2023/08/14 07:35:41;;;;;;;10.90;5.00;;;;;;;35.54;39.19;97902.88;5017149;28;20033;-76
2023/08/14 07:38:08;;;;;;;9.68;4.20;;;;;;;34.59;39.86;97894.75;5026452;28;20551;-75
2023/08/14 07:40:34;;;;;;;25.30;15.23;;;;;;;34.34;40.88;97905.16;5024582;28;20052;-75
2023/08/14 07:42:59;;;;;;;5.65;4.00;;;;;;;33.40;42.35;97907.66;5024169;28;20033;-75
2023/08/14 07:45:25;;;;;;;16.65;6.65;;;;;;;32.81;43.56;97911.00;5045375;28;20033;-75
2023/08/14 07:47:50;;;;;;;10.40;4.32;;;;;;;32.72;44.76;97916.84;5014624;28;20033;-75
2023/08/14 07:50:16;;;;;;;39.50;6.50;;;;;;;33.03;43.73;97907.59;5007870;28;20037;-74
2023/08/14 07:52:42;;;;;;;5.50;4.50;;;;;;;32.93;43.94;97909.19;5039317;28;20033;-75
2023/08/14 07:55:07;;;;;;;12.70;4.47;;;;;;;33.37;43.72;97908.97;5041373;28;20025;-74
2023/08/14 07:57:33;;;;;;;6.55;4.00;;;;;;;34.13;41.65;97898.22;5026004;28;20025;-75
2023/08/14 07:59:58;;;;;;;5.20;4.13;;;;;;;35.45;38.88;97901.56;5026823;28;20061;-75
2023/08/14 08:02:24;;;;;;;6.30;3.95;;;;;;;35.54;38.63;97891.75;5016430;28;20430;-74
2023/08/14 08:04:49;;;;;;;6.45;4.13;;;;;;;35.53;38.98;97901.19;5016695;28;20025;-75
2023/08/14 08:07:15;;;;;;;9.90;3.97;;;;;;;36.37;37.61;97892.09;5023454;28;20033;-75
2023/08/14 08:09:40;;;;;;;6.38;4.03;;;;;;;34.98;38.32;97884.06;5020798;28;20031;-76
2023/08/14 08:12:06;;;;;;;10.07;4.00;;;;;;;35.72;37.92;97883.25;5035664;28;20021;-75
2023/08/14 08:14:36;;;;;;;6.10;4.55;;;;;;;36.22;37.35;97878.72;5038458;28;20032;-74
2023/08/14 08:17:02;;;;;;;12.38;3.63;;;;;;;36.91;36.34;97882.19;5025456;28;20127;-75
2023/08/14 08:19:27;;;;;;;39.97;5.32;;;;;;;36.11;37.95;97878.78;5015816;28;20037;-74
2023/08/14 08:21:53;;;;;;;17.30;5.00;;;;;;;34.79;39.76;97884.13;5025432;28;20511;-75
2023/08/14 08:24:19;;;;;;;38.35;6.13;;;;;;;35.35;39.48;97882.69;5009774;28;20540;-75
2023/08/14 08:26:45;;;;;;;6.60;4.53;;;;;;;35.55;38.70;97877.59;5042656;28;20100;-75
2023/08/14 08:29:10;;;;;;;9.30;4.85;;;;;;;35.32;39.22;97884.03;5038116;28;20064;-75
2023/08/14 08:31:36;;;;;;;12.25;4.47;;;;;;;34.59;40.35;97882.75;5038916;28;20045;-75
2023/08/14 08:34:02;;;;;;;11.25;4.03;;;;;;;34.38;39.77;97886.09;5035905;28;20029;-75
2023/08/14 08:36:27;;;;;;;7.43;3.47;;;;;;;33.82;38.84;97865.09;5040834;28;20029;-75
2023/08/14 08:38:53;;;;;;;14.15;4.28;;;;;;;33.25;40.66;97880.31;5030203;28;20069;-75
2023/08/14 08:41:31;;;;;;;12.20;3.90;;;;;;;32.46;40.10;97867.13;5023767;28;20036;-75
2023/08/14 08:44:06;;;;;;;5.30;3.20;;;;;;;31.63;39.63;97860.84;5015700;28;20067;-75
2023/08/14 08:46:39;;;;;;;7.20;3.78;;;;;;;32.46;40.16;97858.84;5035946;28;20033;-74
2023/08/14 08:49:05;;;;;;;6.00;3.30;;;;;;;33.07;38.85;97866.41;5025123;28;20026;-75
2023/08/14 08:51:32;;;;;;;11.88;3.47;;;;;;;34.23;37.22;97862.41;5018130;28;20037;-74
2023/08/14 08:53:58;;;;;;;4.75;3.60;;;;;;;35.26;35.91;97857.19;5032027;28;20043;-75
2023/08/14 08:56:25;;;;;;;8.93;4.65;;;;;;;36.26;34.29;97852.06;5038177;28;20024;-75
2023/08/14 08:58:51;;;;;;;3.33;3.03;;;;;;;36.22;33.63;97844.44;5041874;28;20032;-75
2023/08/14 09:01:16;;;;;;;7.63;3.97;;;;;;;36.92;33.36;97851.22;5012528;28;20053;-75
2023/08/14 09:03:42;;;;;;;8.63;3.20;;;;;;;37.92;32.34;97855.75;5023675;28;20484;-74
2023/08/14 09:06:07;;;;;;;8.57;2.90;;;;;;;38.19;31.90;97844.56;5034243;28;20029;-75
2023/08/14 09:08:33;;;;;;;6.32;3.33;;;;;;;38.79;31.53;97842.41;5030734;28;20082;-74
2023/08/14 09:10:58;;;;;;;23.67;5.38;;;;;;;38.33;30.83;97843.88;5041634;28;20480;-74
2023/08/14 09:13:24;;;;;;;23.08;4.15;;;;;;;38.88;30.08;97838.00;5013151;28;20029;-74
2023/08/14 09:15:51;;;;;;;5.60;3.22;;;;;;;37.06;31.72;97829.44;5037736;28;20081;-74
2023/08/14 09:18:17;;;;;;;6.93;3.40;;;;;;;36.90;32.25;97833.91;5032153;28;20067;-74
2023/08/14 09:20:42;;;;;;;6.55;3.13;;;;;;;37.53;31.82;97818.66;5015990;28;20420;-74
2023/08/14 09:23:12;;;;;;;16.13;3.30;;;;;;;38.08;31.59;97831.63;5035995;28;20077;-75
2023/08/14 09:25:45;;;;;;;22.38;3.63;;;;;;;37.97;31.26;97825.91;5021338;28;20018;-75
2023/08/14 09:28:11;;;;;;;10.13;3.17;;;;;;;38.52;30.40;97821.16;5040841;28;20520;-75
2023/08/14 09:30:37;;;;;;;6.45;3.38;;;;;;;39.27;29.83;97818.94;5046507;28;20041;-75
2023/08/14 09:33:09;;;;;;;4.13;2.83;;;;;;;39.93;29.92;97819.25;5038339;28;20480;-80
2023/08/14 09:35:36;;;;;;;6.78;5.03;;;;;;;39.93;29.52;97811.66;5029472;28;20068;-82
2023/08/14 09:38:02;;;;;;;9.50;3.13;;;;;;;39.30;30.45;97818.41;5029487;28;20037;-81
2023/08/14 09:40:28;;;;;;;17.13;4.53;;;;;;;40.29;29.52;97814.56;5027526;28;20051;-81
2023/08/14 09:42:55;;;;;;;26.70;4.47;;;;;;;40.49;29.20;97809.81;5035232;28;20033;-82
2023/08/14 09:45:23;;;;;;;4.65;3.00;;;;;;;39.74;29.21;97802.09;5010280;28;20025;-81
2023/08/14 09:47:50;;;;;;;7.18;3.08;;;;;;;40.29;28.77;97798.59;5031492;28;20043;-82
2023/08/14 09:50:16;;;;;;;8.80;3.40;;;;;;;39.44;29.76;97807.56;5029145;28;20033;-80
2023/08/14 09:52:45;;;;;;;8.68;3.65;;;;;;;39.98;29.79;97800.47;5026689;28;20029;-81
2023/08/14 09:55:11;;;;;;;31.55;20.77;;;;;;;40.43;29.14;97796.06;5030879;28;20090;-81
2023/08/14 09:57:37;;;;;;;19.27;3.75;;;;;;;40.45;28.92;97797.50;5037665;28;20040;-82
2023/08/14 10:00:04;;;;;;;11.70;4.43;;;;;;;40.63;28.98;97798.06;5045965;28;20021;-82
2023/08/14 10:02:32;;;;;;;11.13;3.25;;;;;;;40.38;29.19;97784.84;5039897;28;20032;-81
2023/08/14 10:04:59;;;;;;;14.30;4.18;;;;;;;39.96;29.38;97794.28;5029585;28;20029;-81
2023/08/14 10:07:26;;;;;;;7.95;3.17;;;;;;;41.15;28.34;97800.53;5021224;28;20055;-82
2023/08/14 10:09:55;;;;;;;12.27;4.10;;;;;;;41.24;27.96;97784.78;5046681;28;20518;-82
2023/08/14 10:12:28;;;;;;;11.88;3.35;;;;;;;40.93;27.62;97784.88;5026769;28;21325;-82
2023/08/14 10:15:05;;;;;;;7.80;3.03;;;;;;;40.61;28.00;97775.88;5026557;28;20085;-82
2023/08/14 10:17:34;;;;;;;11.25;3.47;;;;;;;41.06;27.68;97763.78;5040788;27;20033;-82
2023/08/14 10:20:03;;;;;;;3.55;2.78;;;;;;;40.41;28.36;97759.88;5034805;28;20034;-82
2023/08/14 10:22:28;;;;;;;4.10;2.80;;;;;;;40.84;27.98;97763.22;5023285;28;20060;-81
2023/08/14 10:24:54;;;;;;;6.47;2.80;;;;;;;40.16;28.19;97759.88;5012503;28;20086;-81
2023/08/14 10:27:20;;;;;;;4.35;2.70;;;;;;;40.69;28.27;97757.66;5027758;28;20032;-73
2023/08/14 10:29:47;;;;;;;16.38;4.07;;;;;;;41.11;27.35;97739.31;5027963;28;20504;-83
2023/08/14 10:32:13;;;;;;;8.27;2.80;;;;;;;41.42;26.97;97750.47;5028826;28;20201;-84
2023/08/14 10:34:38;;;;;;;5.07;2.65;;;;;;;41.53;27.32;97752.13;5016358;28;20522;-82
2023/08/14 10:37:04;;;;;;;4.20;2.50;;;;;;;41.57;26.38;97748.44;5048653;28;20033;-82
2023/08/14 10:39:34;;;;;;;5.13;3.80;;;;;;;41.91;26.43;97742.91;5028800;28;20021;-83
2023/08/14 10:42:00;;;;;;;6.13;2.53;;;;;;;41.84;25.90;97742.38;5019362;28;20114;-84
2023/08/14 10:44:32;;;;;;;6.65;2.83;;;;;;;42.02;25.76;97730.47;5040331;28;20434;-84
2023/08/14 10:47:10;;;;;;;10.23;3.20;;;;;;;42.53;25.39;97741.31;5019831;28;20504;-83
2023/08/14 10:49:51;;;;;;;6.43;2.97;;;;;;;41.47;26.40;97734.41;5042092;28;20029;-82
2023/08/14 10:52:20;;;;;;;7.55;2.83;;;;;;;42.03;26.44;97734.94;5033901;28;20053;-82
2023/08/14 10:54:54;;;;;;;7.50;2.70;;;;;;;41.20;26.71;97730.28;5035590;28;20106;-82
2023/08/14 10:57:27;;;;;;;2.70;2.50;;;;;;;41.73;26.17;97735.13;5043979;28;20044;-83
2023/08/14 10:59:57;;;;;;;8.55;2.55;;;;;;;42.27;25.85;97726.63;5011837;28;20033;-84
2023/08/14 11:02:25;;;;;;;7.90;2.42;;;;;;;42.87;25.35;97733.69;5031659;28;20103;-83
2023/08/14 11:04:58;;;;;;;10.05;2.38;;;;;;;42.52;25.33;97731.19;5033015;28;20035;-82
2023/08/14 11:07:33;;;;;;;6.55;2.58;;;;;;;42.35;24.87;97723.19;5016717;28;20033;-84
2023/08/14 11:09:58;;;;;;;5.53;2.50;;;;;;;42.36;25.05;97722.06;5042916;28;20554;-83
2023/08/14 11:12:25;;;;;;;7.32;2.45;;;;;;;41.95;25.44;97715.06;5039044;28;20073;-83
2023/08/14 11:14:50;;;;;;;5.63;2.40;;;;;;;41.95;25.59;97715.06;5028098;28;20400;-83
2023/08/14 11:17:16;;;;;;;5.13;2.40;;;;;;;42.80;24.95;97716.31;5011214;28;20026;-83
2023/08/14 11:19:41;;;;;;;3.40;2.40;;;;;;;40.85;26.66;97709.63;5036547;28;20021;-83
2023/08/14 11:22:07;;;;;;;8.80;2.75;;;;;;;40.16;27.36;97706.59;5016137;28;20112;-82